Flight Track Log - Related Links

Times and Time Zones

All times are in EDT time to prevent confusion due to time zone crossing. See the EJA922 flight status page for this flight to view local times or setup timezone preferences in your user account.

Time Position Orientation Groundspeed Altitude Reporting Facility
EDT Latitude Longitude Course Direction KTS MPH feet Rate Location/Type
Fri 10:34:54 AM 40.8167 -74.1333 323° Northwest 205 236 1,600  Level New York TRACON
Fri 10:35:54 AM 40.8167 -74.2167 270° West 240 276 2,100 2,190 Climbing New York TRACON
Fri 10:37:00 AM 40.8333 -74.3167 282° West 276 318 6,200 3,476 Climbing New York TRACON
Fri 10:38:00 AM 40.9000 -74.3500 339° North 285 328 9,400 2,053 Climbing New York TRACON
Fri 10:38:54 AM 40.9667 -74.3833 339° North 283 326 10,100 1,050 Climbing New York TRACON
Fri 10:40:00 AM 41.4582 -74.4916 323° Northwest  Level FlightAware Approximate
Fri 10:40:00 AM 41.0667 -74.4000 353° North 329 379 11,500  Level New York TRACON
Fri 10:41:50 AM 41.2356 -74.3769 North 387 445 15,100 1,624 Climbing New York Center
Fri 10:42:50 AM 41.3608 -74.3728 North 393 452 16,100 1,388 Climbing New York Center
Fri 10:43:51 AM 41.4417 -74.4489 325° Northwest 388 447 17,900 1,613 Climbing New York Center
Fri 10:44:49 AM 41.4947 -74.5517 305° West 358 412 19,300 1,600 Climbing New York Center
Fri 10:45:51 AM 41.5547 -74.6936 299° West 381 438 21,100 1,550 Climbing New York Center
Fri 10:46:49 AM 41.6086 -74.8244 299° West 395 455 22,400 1,261 Climbing New York Center
Fri 10:47:50 AM 41.6664 -74.9583 300° West 407 468 23,600 1,200 Climbing New York Center
Fri 10:48:49 AM 41.7239 -75.0981 299° West 419 482 24,800 1,339 Climbing New York Center
Fri 10:49:51 AM 41.7831 -75.2383 300° West 424 488 26,300 1,279 Climbing New York Center
Fri 10:50:51 AM 41.8422 -75.3786 300° West 429 494 27,400 1,026 Climbing New York Center
Fri 10:51:48 AM 41.9050 -75.5278 300° West 436 502 28,300 1,068 Climbing New York Center
Fri 10:52:49 AM 41.9636 -75.6744 298° West 441 507 29,500 1,785 Climbing New York Center
Fri 10:53:49 AM 42.0319 -75.8358 300° West 453 521 31,900 2,017 Climbing New York Center
Fri 10:54:48 AM 42.0844 -75.9656 299° West 448 516 33,500 2,100 Climbing New York Center
Fri 10:55:49 AM 42.1450 -76.1044 300° West 443 510 36,100 2,182 Climbing New York Center
Fri 10:57:22 AM 42.2192 -76.3322 294° West 420 483 39,100 1,529 Climbing Cleveland Center
Fri 10:58:22 AM 42.2686 -76.4889 293° West 429 494 40,000 450 Climbing Cleveland Center
Fri 10:59:22 AM 42.3200 -76.6458 294° West 448 516 40,000  Level Cleveland Center
Fri 11:00:22 AM 42.3714 -76.8111 293° West 466 536 40,000  Level Cleveland Center
Fri 11:01:22 AM 42.4247 -76.9769 294° West 472 543 40,000  Level Cleveland Center
Fri 11:02:22 AM 42.4756 -77.1400 293° West 477 549 40,000  Level Cleveland Center
Fri 11:03:22 AM 42.5264 -77.3092 292° West 477 549 40,000  Level Cleveland Center
Fri 11:04:22 AM 42.5792 -77.4814 293° West 484 557 40,000  Level Cleveland Center
Fri 11:05:22 AM 42.6314 -77.6508 293° West 491 565 40,000  Level Cleveland Center
Fri 11:06:22 AM 42.6903 -77.8431 293° West 491 565 40,000  Level Cleveland Center
Fri 11:07:22 AM 42.7419 -78.0078 293° West 486 559 40,000  Level Cleveland Center
Fri 11:08:22 AM 42.7917 -78.1783 292° West 486 559 40,000 -1,000 Level Cleveland Center
Fri 11:09:22 AM 42.8408 -78.3464 292° West 486 559 38,000 -2,200 Descending Cleveland Center
Fri 11:10:22 AM 42.8897 -78.5089 292° West 476 548 35,600 -2,000 Descending Cleveland Center
Fri 11:11:22 AM 42.9322 -78.6833 288° West 476 548 34,000 -800 Descending Cleveland Center
Fri 11:12:22 AM 42.9436 -78.8731 275° West 487 560 34,000  Level Cleveland Center
Fri 11:13:11 AM 42.9500 -79.0167 274° West 510 587 34,000  Level Toronto Center
Fri 11:14:11 AM 42.9500 -79.2000 270° West 500 575 34,000 -400 Level Toronto Center
Fri 11:15:11 AM 42.9500 -79.3833 270° West 500 575 33,200 -1,650 Descending Toronto Center
Fri 11:16:11 AM 42.9333 -79.5667 263° West 480 552 30,700 -1,600 Descending Toronto Center
Fri 11:17:11 AM 42.9333 -79.7500 270° West 500 575 30,000 -350 Descending Toronto Center
Fri 11:18:11 AM 42.9167 -79.9333 263° West 500 575 30,000  Level Toronto Center
Fri 11:19:11 AM 42.9167 -80.1333 270° West 510 587 30,000  Level Toronto Center
Fri 11:20:11 AM 42.9000 -80.3167 263° West 510 587 30,000 -50 Level Toronto Center
Fri 11:21:11 AM 42.9000 -80.5167 270° West 510 587 29,900 -600 Descending Toronto Center
Fri 11:22:11 AM 42.9000 -80.7000 270° West 510 587 28,800 -950 Descending Toronto Center
Fri 11:23:11 AM 42.8667 -80.8833 256° West 500 575 28,000 -1,150 Descending Toronto Center
Fri 11:24:11 AM 42.8667 -81.0833 270° West 490 564 26,500 -1,950 Descending Toronto Center
Fri 11:25:11 AM 42.8500 -81.2667 263° West 490 564 24,100 -2,723 Descending Toronto Center
Fri 11:26:10 AM 42.8592 -81.4556 274° West 475 547 21,100 -2,924 Descending Cleveland Center
Fri 11:27:10 AM 42.8494 -81.6139 265° West 446 513 18,300 -2,750 Descending Cleveland Center
Fri 11:28:10 AM 42.8417 -81.7667 266° West 413 475 15,600 -2,500 Descending Cleveland Center
Fri 11:29:10 AM 42.8342 -81.8997 266° West 407 468 13,300 -1,800 Descending Cleveland Center
Fri 11:30:10 AM 42.8156 -82.0464 260° West 401 461 12,000 -1,050 Descending Cleveland Center
Fri 11:31:10 AM 42.7806 -82.1842 251° West 396 456 11,200 -950 Descending Cleveland Center
Fri 11:32:10 AM 42.7681 -82.3253 263° West 390 449 10,100 -550 Descending Cleveland Center
Fri 11:33:10 AM 42.7619 -82.4497 266° West 367 422 10,100  Level Cleveland Center
Fri 11:34:10 AM 42.7581 -82.5542 267° West 322 371 10,100  Level Cleveland Center

Login

Don't have an account? Register now (free) for customized features, flight alerts, and more!